createdAt,value
2019-02-02T00:01:17.507Z,85.47
2019-02-02T00:03:44.846Z,85.09
2019-02-02T00:06:12.942Z,85.28
2019-02-02T00:08:43.734Z,84.81
2019-02-02T00:11:14.379Z,84.93
2019-02-02T00:13:43.604Z,85.37
2019-02-02T00:16:13.540Z,85.61
2019-02-02T00:18:44.326Z,85.60
2019-02-02T00:21:14.158Z,85.95
2019-02-02T00:23:42.087Z,85.60
2019-02-02T00:26:13.170Z,85.26
2019-02-02T00:28:41.267Z,85.42
2019-02-02T00:31:09.272Z,85.60
2019-02-02T00:33:40.359Z,85.28
2019-02-02T00:36:09.666Z,85.04
2019-02-02T00:38:37.701Z,85.32
2019-02-02T00:41:07.201Z,85.40
2019-02-02T00:43:38.375Z,85.34
2019-02-02T00:46:07.461Z,85.35
2019-02-02T00:48:38.105Z,85.44
2019-02-02T00:51:07.904Z,85.30
2019-02-02T00:53:36.397Z,85.31
2019-02-02T00:56:08.279Z,85.56
2019-02-02T00:58:42.488Z,85.38
2019-02-02T01:01:12.831Z,85.39
2019-02-02T01:03:49.379Z,85.52
2019-02-02T01:06:16.738Z,85.88
2019-02-02T01:08:45.904Z,85.94
2019-02-02T01:11:22.160Z,86.75
2019-02-02T01:13:50.301Z,86.77
2019-02-02T01:16:24.162Z,86.91
2019-02-02T01:18:56.026Z,87.28
2019-02-02T01:21:23.510Z,87.06
2019-02-02T01:23:51.950Z,87.20
2019-02-02T01:26:23.566Z,86.96
2019-02-02T01:28:52.210Z,87.03
2019-02-02T01:31:24.266Z,87.05
2019-02-02T01:33:52.501Z,87.09
2019-02-02T01:36:20.085Z,86.86
2019-02-02T01:38:48.597Z,86.87
2019-02-02T01:41:18.376Z,86.34
2019-02-02T01:43:46.034Z,86.24
2019-02-02T01:46:14.174Z,86.26
2019-02-02T01:48:43.865Z,86.39
2019-02-02T01:51:20.981Z,86.07
2019-02-02T01:53:52.595Z,86.03
2019-02-02T01:56:21.089Z,86.25
2019-02-02T01:58:48.853Z,86.05
2019-02-02T02:01:17.116Z,86.68
2019-02-02T02:03:45.655Z,86.61
2019-02-02T02:06:14.667Z,86.98
2019-02-02T02:08:42.758Z,87.47
2019-02-02T02:11:11.053Z,87.26
2019-02-02T02:13:39.115Z,86.98
2019-02-02T02:16:06.980Z,86.74
2019-02-02T02:18:34.137Z,87.06
2019-02-02T02:21:01.970Z,87.31
2019-02-02T02:23:29.869Z,86.95
2019-02-02T02:25:57.607Z,86.73
2019-02-02T02:28:28.252Z,86.80
2019-02-02T02:30:55.174Z,86.42
2019-02-02T02:33:22.973Z,86.32
2019-02-02T02:35:51.338Z,86.44
2019-02-02T02:38:18.856Z,86.37
2019-02-02T02:40:46.250Z,86.60
2019-02-02T02:43:14.239Z,86.73
2019-02-02T02:45:41.938Z,87.65
2019-02-02T02:48:09.566Z,87.52
2019-02-02T02:50:37.509Z,87.66
2019-02-02T02:53:05.532Z,87.68
2019-02-02T02:55:33.189Z,87.86
2019-02-02T02:58:00.662Z,88.14
2019-02-02T03:00:28.945Z,88.00
2019-02-02T03:02:56.995Z,87.65
2019-02-02T03:05:25.346Z,87.46
2019-02-02T03:07:54.183Z,87.53
2019-02-02T03:10:22.943Z,87.33
2019-02-02T03:12:51.402Z,87.01
2019-02-02T03:15:19.200Z,86.88
2019-02-02T03:17:47.097Z,86.67
2019-02-02T03:20:15.456Z,86.71
2019-02-02T03:22:42.927Z,86.77
2019-02-02T03:25:13.856Z,86.71
2019-02-02T03:27:42.279Z,86.61
2019-02-02T03:30:13.274Z,86.76
2019-02-02T03:32:41.528Z,87.05
2019-02-02T03:35:10.507Z,87.47
2019-02-02T03:37:38.535Z,87.37
2019-02-02T03:40:10.447Z,87.23
2019-02-02T03:42:38.138Z,87.25
2019-02-02T03:45:05.993Z,87.54
2019-02-02T03:47:33.334Z,87.47
2019-02-02T03:50:01.948Z,87.40
2019-02-02T03:52:29.767Z,87.40
2019-02-02T03:54:57.416Z,87.69
2019-02-02T03:57:25.145Z,87.70
2019-02-02T03:59:53.838Z,87.76
2019-02-02T04:02:21.466Z,88.21
2019-02-02T04:04:48.712Z,87.77
2019-02-02T04:07:16.079Z,87.79
2019-02-02T04:09:43.607Z,88.26
2019-02-02T04:12:11.622Z,88.04
2019-02-02T04:14:39.150Z,87.91
2019-02-02T04:17:06.864Z,87.61
2019-02-02T04:19:35.023Z,87.34
2019-02-02T04:22:02.399Z,87.01
2019-02-02T04:24:29.886Z,86.92
2019-02-02T04:26:57.486Z,86.78
2019-02-02T04:29:25.060Z,87.18
2019-02-02T04:31:52.361Z,87.17
2019-02-02T04:34:19.879Z,87.38
2019-02-02T04:36:47.101Z,87.30
2019-02-02T04:39:14.905Z,87.37
2019-02-02T04:41:42.102Z,87.04
2019-02-02T04:44:10.151Z,87.32
2019-02-02T04:46:37.765Z,87.25
2019-02-02T04:49:05.236Z,87.20
2019-02-02T04:51:32.585Z,87.33
2019-02-02T04:54:00.253Z,87.08
2019-02-02T04:56:28.291Z,87.26
2019-02-02T04:58:56.404Z,87.29
2019-02-02T05:01:24.382Z,87.52
2019-02-02T05:03:51.631Z,87.78
2019-02-02T05:06:19.167Z,87.99
2019-02-02T05:08:46.445Z,87.68
2019-02-02T05:11:13.950Z,88.25
2019-02-02T05:13:41.993Z,88.71
2019-02-02T05:16:09.273Z,88.55
2019-02-02T05:18:37.329Z,88.33
2019-02-02T05:21:05.084Z,88.20
2019-02-02T05:23:32.764Z,88.06
2019-02-02T05:26:00.174Z,88.44
2019-02-02T05:28:27.515Z,88.16
2019-02-02T05:30:55.084Z,87.82
2019-02-02T05:33:22.331Z,88.27
2019-02-02T05:35:50.002Z,88.28
2019-02-02T05:38:18.081Z,88.18
2019-02-02T05:40:46.528Z,88.04
2019-02-02T05:43:14.450Z,88.22
2019-02-02T05:45:41.733Z,88.62
2019-02-02T05:48:09.818Z,88.55
2019-02-02T05:50:37.774Z,88.42
2019-02-02T05:53:05.414Z,88.56
2019-02-02T05:55:33.229Z,88.72
2019-02-02T05:58:00.643Z,88.78
2019-02-02T06:00:42.095Z,88.55
2019-02-02T06:03:09.363Z,88.95
2019-02-02T06:05:37.107Z,88.71
2019-02-02T06:08:04.934Z,88.64
2019-02-02T06:10:32.810Z,89.37
2019-02-02T06:13:00.786Z,89.25
2019-02-02T06:15:29.189Z,89.32
2019-02-02T06:17:57.295Z,89.18
2019-02-02T06:20:25.075Z,89.59
2019-02-02T06:22:52.698Z,89.57
2019-02-02T06:25:20.410Z,89.84
2019-02-02T06:27:48.545Z,89.62
2019-02-02T06:30:17.781Z,89.23
2019-02-02T06:32:45.886Z,89.20
2019-02-02T06:35:14.386Z,88.93
2019-02-02T06:37:42.202Z,89.17
2019-02-02T06:40:10.945Z,88.97
2019-02-02T06:42:38.304Z,89.17
2019-02-02T06:45:09.573Z,88.98
2019-02-02T06:47:36.870Z,89.11
2019-02-02T06:50:07.252Z,88.96
2019-02-02T06:52:35.146Z,88.77
2019-02-02T06:55:03.071Z,89.09
2019-02-02T06:57:30.976Z,88.95
2019-02-02T06:59:58.249Z,88.57
2019-02-02T07:02:25.512Z,88.88
2019-02-02T07:04:53.437Z,88.55
2019-02-02T07:07:21.038Z,88.48
2019-02-02T07:09:48.750Z,88.19
2019-02-02T07:12:16.309Z,88.10
2019-02-02T07:14:44.203Z,87.64
2019-02-02T07:17:12.271Z,87.67
2019-02-02T07:19:39.923Z,87.42
2019-02-02T07:22:07.282Z,87.67
2019-02-02T07:24:34.705Z,87.71
2019-02-02T07:27:02.585Z,87.51
2019-02-02T07:29:30.135Z,87.58
2019-02-02T07:31:57.473Z,87.61
2019-02-02T07:34:24.982Z,87.18
2019-02-02T07:36:52.333Z,86.74
2019-02-02T07:39:19.739Z,87.03
2019-02-02T07:41:47.476Z,87.22
2019-02-02T07:44:14.704Z,87.54
2019-02-02T07:46:42.355Z,87.69
2019-02-02T07:49:10.682Z,87.79
2019-02-02T07:51:38.310Z,88.46
2019-02-02T07:54:06.783Z,88.62
2019-02-02T07:56:34.443Z,88.58
2019-02-02T07:59:02.285Z,88.94
2019-02-02T08:01:30.042Z,89.21
2019-02-02T08:03:57.297Z,89.07
2019-02-02T08:06:25.090Z,89.07
2019-02-02T08:08:52.767Z,89.08
2019-02-02T08:11:19.864Z,88.93
2019-02-02T08:13:47.452Z,88.75
2019-02-02T08:16:14.719Z,89.46
2019-02-02T08:18:42.209Z,88.93
2019-02-02T08:21:09.465Z,88.82
2019-02-02T08:23:36.982Z,89.16
2019-02-02T08:26:04.515Z,88.70
2019-02-02T08:28:32.095Z,88.73
2019-02-02T08:30:59.369Z,88.66
2019-02-02T08:33:27.203Z,88.08
2019-02-02T08:35:54.613Z,88.57
2019-02-02T08:38:22.504Z,88.05
2019-02-02T08:40:50.622Z,87.86
2019-02-02T08:43:18.374Z,87.85
2019-02-02T08:45:46.036Z,87.86
2019-02-02T08:48:13.386Z,87.82
2019-02-02T08:50:41.230Z,87.46
2019-02-02T08:53:09.307Z,87.37
2019-02-02T08:55:36.609Z,87.62
2019-02-02T08:58:04.543Z,88.21
2019-02-02T09:00:32.640Z,87.97
2019-02-02T09:02:59.997Z,88.04
2019-02-02T09:05:27.478Z,87.94
2019-02-02T09:07:55.276Z,87.74
2019-02-02T09:10:25.149Z,87.70
2019-02-02T09:12:53.381Z,87.35
2019-02-02T09:15:21.622Z,87.79
2019-02-02T09:17:48.902Z,87.98
2019-02-02T09:20:16.574Z,87.88
2019-02-02T09:22:45.016Z,87.84
2019-02-02T09:25:14.338Z,88.50
2019-02-02T09:27:42.423Z,88.80
2019-02-02T09:30:20.037Z,88.74
2019-02-02T09:32:47.558Z,89.04
2019-02-02T09:35:16.013Z,89.54
2019-02-02T09:37:43.708Z,89.55
2019-02-02T09:40:13.314Z,89.53
2019-02-02T09:42:41.289Z,89.43
2019-02-02T09:45:10.946Z,89.44
2019-02-02T09:47:38.834Z,89.43
2019-02-02T09:50:09.305Z,89.65
2019-02-02T09:52:36.882Z,89.53
2019-02-02T09:55:07.378Z,89.35
2019-02-02T09:57:36.917Z,89.86
2019-02-02T10:00:09.151Z,89.36
2019-02-02T10:02:37.076Z,89.41
2019-02-02T10:05:05.292Z,89.12
2019-02-02T10:07:32.439Z,88.79
2019-02-02T10:09:59.806Z,88.25
2019-02-02T10:12:27.171Z,88.28
2019-02-02T10:14:54.606Z,88.03
2019-02-02T10:17:22.114Z,87.85
2019-02-02T10:19:49.869Z,88.28
2019-02-02T10:22:17.335Z,88.43
2019-02-02T10:24:45.158Z,88.50
2019-02-02T10:27:12.948Z,89.00
2019-02-02T10:29:41.058Z,88.72
2019-02-02T10:32:08.568Z,88.55
2019-02-02T10:34:36.306Z,88.30
2019-02-02T10:37:04.125Z,88.02
2019-02-02T10:39:31.923Z,88.61
2019-02-02T10:41:59.515Z,87.88
2019-02-02T10:44:27.975Z,88.28
2019-02-02T10:46:55.517Z,88.20
2019-02-02T10:49:22.874Z,88.29
2019-02-02T10:51:50.285Z,88.45
2019-02-02T10:54:18.116Z,88.34
2019-02-02T10:56:46.135Z,87.85
2019-02-02T10:59:14.124Z,88.73
2019-02-02T11:01:50.788Z,88.25
2019-02-02T11:04:11.612Z,88.75
2019-02-02T11:06:38.886Z,88.38
2019-02-02T11:09:08.753Z,89.09
2019-02-02T11:11:36.406Z,88.17
2019-02-02T11:14:04.774Z,87.95
2019-02-02T11:16:33.366Z,88.32
2019-02-02T11:19:01.344Z,87.35
2019-02-02T11:21:29.199Z,87.45
2019-02-02T11:23:57.248Z,88.41
2019-02-02T11:26:24.836Z,88.01
2019-02-02T11:28:52.505Z,88.26
2019-02-02T11:31:20.475Z,88.48
2019-02-02T11:33:48.168Z,87.70
2019-02-02T11:36:15.853Z,87.80
2019-02-02T11:38:43.483Z,87.77
2019-02-02T11:41:10.985Z,87.88
2019-02-02T11:43:38.730Z,88.04
2019-02-02T11:46:06.305Z,87.49
2019-02-02T11:48:34.115Z,88.18
2019-02-02T11:51:01.529Z,87.90
2019-02-02T11:53:28.770Z,87.78
2019-02-02T11:55:56.086Z,87.70
2019-02-02T11:58:23.629Z,87.31
2019-02-02T12:00:50.912Z,87.16
2019-02-02T12:03:18.278Z,87.20
2019-02-02T12:05:45.805Z,87.33
2019-02-02T12:08:13.394Z,87.36
2019-02-02T12:10:41.488Z,87.67
2019-02-02T12:13:09.136Z,87.75
2019-02-02T12:15:38.971Z,87.38
2019-02-02T12:18:06.822Z,87.56
2019-02-02T12:20:34.751Z,87.72
2019-02-02T12:23:03.302Z,87.73
2019-02-02T12:25:30.567Z,87.96
2019-02-02T12:27:58.657Z,88.08
2019-02-02T12:30:29.631Z,87.99
2019-02-02T12:32:57.322Z,87.82
2019-02-02T12:35:25.482Z,87.43
2019-02-02T12:37:53.584Z,87.60
2019-02-02T12:40:21.502Z,87.73
2019-02-02T12:42:49.084Z,87.93
2019-02-02T12:45:23.717Z,87.74
2019-02-02T12:47:51.046Z,87.26
2019-02-02T12:50:18.825Z,87.63
2019-02-02T12:52:46.986Z,87.70
2019-02-02T12:55:14.848Z,87.53
2019-02-02T12:57:42.442Z,87.34
2019-02-02T13:00:14.331Z,87.53
2019-02-02T13:02:42.162Z,87.42
2019-02-02T13:08:57.284Z,87.47
2019-02-02T13:11:24.830Z,86.86
2019-02-02T13:13:52.732Z,86.95
2019-02-02T13:16:20.532Z,86.93
2019-02-02T13:18:47.784Z,87.02
2019-02-02T13:21:15.840Z,87.17
2019-02-02T13:23:42.995Z,86.29
2019-02-02T13:26:10.330Z,86.56
2019-02-02T13:28:38.359Z,86.31
2019-02-02T13:31:05.609Z,86.76
2019-02-02T13:33:33.314Z,86.63
2019-02-02T13:36:00.810Z,86.70
2019-02-02T13:38:28.126Z,86.45
2019-02-02T13:40:56.018Z,86.77
2019-02-02T13:43:23.410Z,86.30
2019-02-02T13:45:50.748Z,86.63
2019-02-02T13:48:18.097Z,86.75
2019-02-02T13:50:46.653Z,85.68
2019-02-02T13:53:14.435Z,86.22
2019-02-02T13:55:42.291Z,86.12
2019-02-02T13:58:09.786Z,86.21
2019-02-02T14:00:37.901Z,85.36
2019-02-02T14:03:05.947Z,85.83
2019-02-02T14:05:33.453Z,84.89
2019-02-02T14:08:01.209Z,86.42
2019-02-02T14:10:30.562Z,85.92
2019-02-02T14:12:58.389Z,84.48
2019-02-02T14:15:26.434Z,85.55
2019-02-02T14:17:53.805Z,85.30
2019-02-02T14:20:21.593Z,85.43
2019-02-02T14:22:48.904Z,85.60
2019-02-02T14:25:17.525Z,85.27
2019-02-02T14:27:45.102Z,85.56
2019-02-02T14:30:16.119Z,85.31
2019-02-02T14:32:43.486Z,85.80
2019-02-02T14:35:12.282Z,85.44
2019-02-02T14:37:40.143Z,85.04
2019-02-02T14:40:09.600Z,85.17
2019-02-02T14:42:37.089Z,85.71
2019-02-02T14:45:07.780Z,84.92
2019-02-02T14:47:35.079Z,84.50
2019-02-02T14:50:03.810Z,84.69
2019-02-02T14:52:31.900Z,85.26
2019-02-02T14:54:59.180Z,85.09
2019-02-02T14:57:26.714Z,85.16
2019-02-02T14:59:54.220Z,85.27
2019-02-02T15:02:21.591Z,85.00
2019-02-02T15:04:49.624Z,85.02
2019-02-02T15:07:17.274Z,85.00
2019-02-02T15:09:45.903Z,84.93
2019-02-02T15:12:13.822Z,84.98
2019-02-02T15:14:41.147Z,84.82
2019-02-02T15:17:09.309Z,85.86
2019-02-02T15:19:37.182Z,85.59
2019-02-02T15:22:05.037Z,84.78
2019-02-02T15:24:32.586Z,84.94
2019-02-02T15:27:00.141Z,84.88
2019-02-02T15:29:27.605Z,85.04
2019-02-02T15:31:55.274Z,85.06
2019-02-02T15:34:23.563Z,85.23
2019-02-02T15:36:50.990Z,85.03
2019-02-02T15:39:18.739Z,85.17
2019-02-02T15:41:53.040Z,85.11
2019-02-02T15:44:16.152Z,84.94
2019-02-02T15:46:49.070Z,84.58
2019-02-02T15:49:13.219Z,84.92
2019-02-02T15:51:41.203Z,84.89
2019-02-02T15:54:08.606Z,85.16
2019-02-02T15:56:35.891Z,85.06
2019-02-02T15:59:03.440Z,85.15
2019-02-02T16:01:30.971Z,85.13
2019-02-02T16:03:58.507Z,84.80
2019-02-02T16:06:26.220Z,85.04
2019-02-02T16:08:53.905Z,84.91
2019-02-02T16:11:21.523Z,84.74
2019-02-02T16:13:48.730Z,84.81
2019-02-02T16:16:16.126Z,84.79
2019-02-02T16:18:43.602Z,84.82
2019-02-02T16:21:11.240Z,84.83
2019-02-02T16:23:39.478Z,84.82
2019-02-02T16:26:06.780Z,84.87
2019-02-02T16:28:34.424Z,84.83
2019-02-02T16:31:02.121Z,84.64
2019-02-02T16:33:31.627Z,85.04
2019-02-02T16:35:59.623Z,84.56
2019-02-02T16:38:27.570Z,84.45
2019-02-02T16:40:55.642Z,85.30
2019-02-02T16:43:23.182Z,85.59
2019-02-02T16:45:52.936Z,84.89
2019-02-02T16:48:22.212Z,84.82
2019-02-02T16:50:51.542Z,85.05
2019-02-02T16:53:21.923Z,85.16
2019-02-02T16:55:53.252Z,84.84
2019-02-02T16:58:23.396Z,85.35
2019-02-02T17:00:50.909Z,85.16
2019-02-02T17:03:18.626Z,84.86
2019-02-02T17:05:46.018Z,85.57
2019-02-02T17:08:13.441Z,85.25
2019-02-02T17:10:41.068Z,85.33
2019-02-02T17:13:09.321Z,84.96
2019-02-02T17:15:36.573Z,85.35
2019-02-02T17:18:05.349Z,85.44
2019-02-02T17:20:42.001Z,85.55
2019-02-02T17:23:09.452Z,85.46
2019-02-02T17:25:37.242Z,85.70
2019-02-02T17:28:06.408Z,85.61
2019-02-02T17:30:34.645Z,85.32
2019-02-02T17:33:04.934Z,85.20
2019-02-02T17:35:32.306Z,84.77
2019-02-02T17:37:59.667Z,84.82
2019-02-02T17:40:27.441Z,84.58
2019-02-02T17:42:55.543Z,84.86
2019-02-02T17:45:23.760Z,85.04
2019-02-02T17:47:52.757Z,85.24
2019-02-02T17:50:22.015Z,85.13
2019-02-02T17:52:50.002Z,84.96
2019-02-02T17:55:18.897Z,85.05
2019-02-02T17:57:46.665Z,85.01
2019-02-02T18:00:28.015Z,85.07
2019-02-02T18:02:55.867Z,85.06
2019-02-02T18:05:23.109Z,85.29
2019-02-02T18:07:50.821Z,85.26
2019-02-02T18:10:18.146Z,85.23
2019-02-02T18:12:46.370Z,84.87
2019-02-02T18:15:14.047Z,85.14
2019-02-02T18:17:41.864Z,85.25
2019-02-02T18:20:11.887Z,85.33
2019-02-02T18:22:39.578Z,85.59
2019-02-02T18:25:09.474Z,85.38
2019-02-02T18:27:37.464Z,85.23
2019-02-02T18:30:09.629Z,85.44
2019-02-02T18:32:36.857Z,84.89
2019-02-02T18:35:05.767Z,85.27
2019-02-02T18:37:33.463Z,85.42
2019-02-02T18:40:00.758Z,85.46
2019-02-02T18:42:28.423Z,85.52
2019-02-02T18:44:56.413Z,85.71
2019-02-02T18:47:24.215Z,85.63
2019-02-02T18:49:51.875Z,85.70
2019-02-02T18:52:19.302Z,85.63
2019-02-02T18:54:47.238Z,85.48
2019-02-02T18:57:14.357Z,85.71
2019-02-02T18:59:41.862Z,85.70
2019-02-02T19:02:16.902Z,85.59
2019-02-02T19:04:44.410Z,85.59
2019-02-02T19:07:12.398Z,85.50
2019-02-02T19:09:42.290Z,85.53
2019-02-02T19:12:09.888Z,85.83
2019-02-02T19:14:37.408Z,85.42
2019-02-02T19:17:04.810Z,85.61
2019-02-02T19:19:32.298Z,85.69
2019-02-02T19:21:59.876Z,85.66
2019-02-02T19:24:27.239Z,85.54
2019-02-02T19:26:54.988Z,85.21
2019-02-02T19:29:22.652Z,85.08
2019-02-02T19:31:52.101Z,85.25
2019-02-02T19:34:21.021Z,85.36
2019-02-02T19:36:51.376Z,85.41
2019-02-02T19:39:18.633Z,85.44
2019-02-02T19:41:52.547Z,85.41
2019-02-02T19:44:22.694Z,85.56
2019-02-02T19:46:54.801Z,85.65
2019-02-02T19:49:23.236Z,85.60
2019-02-02T19:51:54.342Z,85.67
2019-02-02T19:54:22.121Z,85.61
2019-02-02T19:56:50.229Z,85.61
2019-02-02T19:59:17.469Z,85.38
2019-02-02T20:01:45.483Z,85.33
2019-02-02T20:04:20.900Z,85.42
2019-02-02T20:06:51.947Z,85.81
2019-02-02T20:09:20.982Z,85.47
2019-02-02T20:11:48.905Z,85.34
2019-02-02T20:14:17.070Z,85.64
2019-02-02T20:16:45.073Z,85.29
2019-02-02T20:19:12.494Z,85.54
2019-02-02T20:21:40.163Z,85.58
2019-02-02T20:24:07.438Z,85.55
2019-02-02T20:26:35.816Z,85.17
2019-02-02T20:29:03.754Z,85.43
2019-02-02T20:31:31.299Z,85.28
2019-02-02T20:33:58.894Z,85.20
2019-02-02T20:36:26.126Z,85.45
2019-02-02T20:38:53.907Z,85.41
2019-02-02T20:41:21.777Z,85.37
2019-02-02T20:43:49.428Z,85.20
2019-02-02T20:46:16.559Z,85.13
2019-02-02T20:48:45.266Z,85.23
2019-02-02T20:51:12.526Z,85.19
2019-02-02T20:53:40.062Z,85.00
2019-02-02T20:56:08.010Z,85.03
2019-02-02T20:58:35.654Z,85.13
2019-02-02T21:01:04.484Z,84.81
2019-02-02T21:03:32.198Z,85.17
2019-02-02T21:05:59.347Z,85.33
2019-02-02T21:08:26.900Z,85.11
2019-02-02T21:10:54.303Z,84.91
2019-02-02T21:13:22.350Z,85.08
2019-02-02T21:15:49.985Z,85.06
2019-02-02T21:18:17.782Z,85.11
2019-02-02T21:20:45.297Z,85.03
2019-02-02T21:23:13.102Z,85.02
2019-02-02T21:25:40.875Z,85.16
2019-02-02T21:28:08.474Z,85.14
2019-02-02T21:30:35.774Z,85.21
2019-02-02T21:33:04.037Z,84.99
2019-02-02T21:35:31.863Z,85.60
2019-02-02T21:37:59.240Z,84.93
2019-02-02T21:40:29.680Z,85.25
2019-02-02T21:42:57.030Z,85.00
2019-02-02T21:45:24.431Z,85.15
2019-02-02T21:47:52.191Z,85.18
2019-02-02T21:50:21.998Z,85.01
2019-02-02T21:52:50.298Z,84.72
2019-02-02T21:55:21.034Z,85.39
2019-02-02T21:57:48.610Z,85.09
2019-02-02T22:00:22.411Z,85.43
2019-02-02T22:02:50.502Z,85.02
2019-02-02T22:05:18.376Z,85.74
2019-02-02T22:07:47.482Z,85.70
2019-02-02T22:10:15.652Z,85.59
2019-02-02T22:12:43.465Z,85.42
2019-02-02T22:15:17.657Z,85.36
2019-02-02T22:17:45.306Z,85.31
2019-02-02T22:20:13.652Z,85.61
2019-02-02T22:22:41.265Z,85.52
2019-02-02T22:25:13.543Z,85.88
2019-02-02T22:27:41.371Z,85.77
2019-02-02T22:30:13.706Z,85.88
2019-02-02T22:32:41.226Z,85.54
2019-02-02T22:35:09.111Z,85.61
2019-02-02T22:37:36.784Z,85.60
2019-02-02T22:40:07.847Z,85.47
2019-02-02T22:42:35.529Z,85.77
2019-02-02T22:45:04.598Z,85.92
2019-02-02T22:47:32.321Z,86.02
2019-02-02T22:50:00.251Z,85.88
2019-02-02T22:52:27.845Z,85.93
2019-02-02T22:54:55.163Z,85.71
2019-02-02T22:57:22.315Z,86.06
2019-02-02T22:59:50.040Z,85.83
2019-02-02T23:02:20.590Z,85.82
2019-02-02T23:05:32.971Z,85.52
2019-02-02T23:08:46.616Z,85.52
2019-02-02T23:11:45.446Z,85.46
2019-02-02T23:14:40.906Z,85.62
2019-02-02T23:17:09.189Z,85.65
2019-02-02T23:19:36.565Z,85.70
2019-02-02T23:22:04.730Z,85.63
2019-02-02T23:24:32.663Z,85.93
2019-02-02T23:27:00.431Z,85.72
2019-02-02T23:29:29.789Z,85.68
2019-02-02T23:31:57.858Z,85.60
2019-02-02T23:34:25.390Z,85.73
2019-02-02T23:36:55.673Z,85.63
2019-02-02T23:39:24.382Z,85.44
2019-02-02T23:41:52.494Z,85.37
2019-02-02T23:44:20.043Z,85.30
2019-02-02T23:46:48.426Z,85.44
2019-02-02T23:49:15.845Z,85.35
2019-02-02T23:51:43.633Z,85.20
2019-02-02T23:54:12.197Z,85.17
2019-02-02T23:56:39.736Z,85.05
2019-02-02T23:59:07.287Z,84.89
